sensor_id;sensor_type;location;lat;lon;timestamp;P1;durP1;ratioP1;P2;durP2;ratioP2
77798;SDS011;66989;50.426;15.352;2023-03-14T00:01:18;6.88;;;3.60;;
77798;SDS011;66989;50.426;15.352;2023-03-14T00:03:47;4.90;;;1.92;;
77798;SDS011;66989;50.426;15.352;2023-03-14T00:06:12;5.50;;;3.70;;
77798;SDS011;66989;50.426;15.352;2023-03-14T00:08:40;3.50;;;1.95;;
77798;SDS011;66989;50.426;15.352;2023-03-14T00:11:07;4.82;;;2.05;;
77798;SDS011;66989;50.426;15.352;2023-03-14T00:13:34;7.82;;;2.83;;
77798;SDS011;66989;50.426;15.352;2023-03-14T00:16:07;12.05;;;4.25;;
77798;SDS011;66989;50.426;15.352;2023-03-14T00:18:34;8.60;;;3.67;;
77798;SDS011;66989;50.426;15.352;2023-03-14T00:21:00;6.95;;;4.32;;
77798;SDS011;66989;50.426;15.352;2023-03-14T00:23:28;7.25;;;3.50;;
77798;SDS011;66989;50.426;15.352;2023-03-14T00:26:02;11.02;;;4.63;;
77798;SDS011;66989;50.426;15.352;2023-03-14T00:28:32;10.10;;;5.47;;
77798;SDS011;66989;50.426;15.352;2023-03-14T00:30:58;7.90;;;4.35;;
77798;SDS011;66989;50.426;15.352;2023-03-14T00:33:24;7.60;;;4.30;;
77798;SDS011;66989;50.426;15.352;2023-03-14T00:35:53;8.73;;;3.38;;
77798;SDS011;66989;50.426;15.352;2023-03-14T00:38:19;8.05;;;4.15;;
77798;SDS011;66989;50.426;15.352;2023-03-14T00:40:46;6.60;;;4.28;;
77798;SDS011;66989;50.426;15.352;2023-03-14T00:43:11;6.80;;;4.03;;
77798;SDS011;66989;50.426;15.352;2023-03-14T00:45:37;7.05;;;3.03;;
77798;SDS011;66989;50.426;15.352;2023-03-14T00:48:02;8.63;;;4.18;;
77798;SDS011;66989;50.426;15.352;2023-03-14T00:50:29;7.70;;;4.15;;
77798;SDS011;66989;50.426;15.352;2023-03-14T00:52:54;9.27;;;5.47;;
77798;SDS011;66989;50.426;15.352;2023-03-14T00:55:20;10.73;;;4.87;;
77798;SDS011;66989;50.426;15.352;2023-03-14T00:57:45;8.07;;;4.78;;
77798;SDS011;66989;50.426;15.352;2023-03-14T01:00:11;6.85;;;4.55;;
77798;SDS011;66989;50.426;15.352;2023-03-14T01:02:37;10.18;;;4.22;;
77798;SDS011;66989;50.426;15.352;2023-03-14T01:05:03;7.93;;;4.30;;
77798;SDS011;66989;50.426;15.352;2023-03-14T01:07:29;7.07;;;4.95;;
77798;SDS011;66989;50.426;15.352;2023-03-14T01:09:54;8.18;;;5.25;;
77798;SDS011;66989;50.426;15.352;2023-03-14T01:12:19;9.00;;;4.90;;
77798;SDS011;66989;50.426;15.352;2023-03-14T01:14:45;10.23;;;4.70;;
77798;SDS011;66989;50.426;15.352;2023-03-14T01:17:10;6.22;;;4.38;;
77798;SDS011;66989;50.426;15.352;2023-03-14T01:19:35;8.73;;;4.75;;
77798;SDS011;66989;50.426;15.352;2023-03-14T01:22:01;8.88;;;4.30;;
77798;SDS011;66989;50.426;15.352;2023-03-14T01:24:26;9.35;;;4.78;;
77798;SDS011;66989;50.426;15.352;2023-03-14T01:26:52;7.22;;;4.65;;
77798;SDS011;66989;50.426;15.352;2023-03-14T01:29:17;8.38;;;4.28;;
77798;SDS011;66989;50.426;15.352;2023-03-14T01:31:42;7.38;;;4.80;;
77798;SDS011;66989;50.426;15.352;2023-03-14T01:34:08;8.98;;;5.03;;
77798;SDS011;66989;50.426;15.352;2023-03-14T01:36:33;8.32;;;4.68;;
77798;SDS011;66989;50.426;15.352;2023-03-14T01:38:59;11.60;;;5.75;;
77798;SDS011;66989;50.426;15.352;2023-03-14T01:41:25;9.82;;;5.07;;
77798;SDS011;66989;50.426;15.352;2023-03-14T01:43:51;10.88;;;5.43;;
77798;SDS011;66989;50.426;15.352;2023-03-14T01:46:19;9.80;;;3.97;;
77798;SDS011;66989;50.426;15.352;2023-03-14T01:54:49;8.23;;;4.53;;
77798;SDS011;66989;50.426;15.352;2023-03-14T01:57:29;7.40;;;3.95;;
77798;SDS011;66989;50.426;15.352;2023-03-14T02:00:03;6.50;;;4.70;;
77798;SDS011;66989;50.426;15.352;2023-03-14T02:02:36;9.45;;;4.18;;
77798;SDS011;66989;50.426;15.352;2023-03-14T02:05:03;6.63;;;4.65;;
77798;SDS011;66989;50.426;15.352;2023-03-14T02:07:44;6.43;;;4.32;;
77798;SDS011;66989;50.426;15.352;2023-03-14T02:10:14;6.55;;;3.78;;
77798;SDS011;66989;50.426;15.352;2023-03-14T02:12:44;7.45;;;4.82;;
77798;SDS011;66989;50.426;15.352;2023-03-14T02:15:11;6.28;;;3.67;;
77798;SDS011;66989;50.426;15.352;2023-03-14T02:17:36;10.93;;;4.80;;
77798;SDS011;66989;50.426;15.352;2023-03-14T02:22:32;7.60;;;4.60;;
77798;SDS011;66989;50.426;15.352;2023-03-14T02:25:08;9.48;;;6.10;;
77798;SDS011;66989;50.426;15.352;2023-03-14T02:27:53;8.10;;;4.20;;
77798;SDS011;66989;50.426;15.352;2023-03-14T02:30:24;7.65;;;3.75;;
77798;SDS011;66989;50.426;15.352;2023-03-14T02:32:58;5.60;;;3.70;;
77798;SDS011;66989;50.426;15.352;2023-03-14T02:35:29;8.23;;;5.30;;
77798;SDS011;66989;50.426;15.352;2023-03-14T02:40:47;9.38;;;5.03;;
77798;SDS011;66989;50.426;15.352;2023-03-14T02:43:13;7.40;;;4.97;;
77798;SDS011;66989;50.426;15.352;2023-03-14T02:48:06;7.30;;;4.00;;
77798;SDS011;66989;50.426;15.352;2023-03-14T02:50:35;7.45;;;5.13;;
77798;SDS011;66989;50.426;15.352;2023-03-14T02:53:00;9.75;;;5.40;;
77798;SDS011;66989;50.426;15.352;2023-03-14T02:55:26;6.93;;;4.65;;
77798;SDS011;66989;50.426;15.352;2023-03-14T02:57:51;11.35;;;4.75;;
77798;SDS011;66989;50.426;15.352;2023-03-14T03:00:17;11.15;;;5.93;;
77798;SDS011;66989;50.426;15.352;2023-03-14T03:02:43;9.05;;;4.68;;
77798;SDS011;66989;50.426;15.352;2023-03-14T03:05:09;6.90;;;4.00;;
77798;SDS011;66989;50.426;15.352;2023-03-14T03:07:34;6.47;;;4.30;;
77798;SDS011;66989;50.426;15.352;2023-03-14T03:10:00;9.18;;;4.75;;
77798;SDS011;66989;50.426;15.352;2023-03-14T03:12:25;13.50;;;6.70;;
77798;SDS011;66989;50.426;15.352;2023-03-14T03:14:50;10.32;;;5.43;;
77798;SDS011;66989;50.426;15.352;2023-03-14T03:17:16;11.70;;;6.22;;
77798;SDS011;66989;50.426;15.352;2023-03-14T03:19:42;9.48;;;5.32;;
77798;SDS011;66989;50.426;15.352;2023-03-14T03:22:07;9.10;;;4.68;;
77798;SDS011;66989;50.426;15.352;2023-03-14T03:24:34;10.00;;;5.30;;
77798;SDS011;66989;50.426;15.352;2023-03-14T03:26:59;9.82;;;5.28;;
77798;SDS011;66989;50.426;15.352;2023-03-14T03:29:24;9.00;;;5.78;;
77798;SDS011;66989;50.426;15.352;2023-03-14T03:31:50;9.60;;;5.53;;
77798;SDS011;66989;50.426;15.352;2023-03-14T03:34:15;8.65;;;4.55;;
77798;SDS011;66989;50.426;15.352;2023-03-14T03:36:41;10.40;;;5.00;;
77798;SDS011;66989;50.426;15.352;2023-03-14T03:39:06;8.27;;;5.07;;
77798;SDS011;66989;50.426;15.352;2023-03-14T03:41:32;7.97;;;4.85;;
77798;SDS011;66989;50.426;15.352;2023-03-14T03:43:57;9.60;;;5.60;;
77798;SDS011;66989;50.426;15.352;2023-03-14T03:46:23;11.38;;;5.63;;
77798;SDS011;66989;50.426;15.352;2023-03-14T03:48:53;14.57;;;6.43;;
77798;SDS011;66989;50.426;15.352;2023-03-14T03:51:20;9.80;;;5.47;;
77798;SDS011;66989;50.426;15.352;2023-03-14T03:53:45;7.32;;;4.38;;
77798;SDS011;66989;50.426;15.352;2023-03-14T03:56:10;7.63;;;3.55;;
77798;SDS011;66989;50.426;15.352;2023-03-14T03:58:36;9.20;;;4.35;;
77798;SDS011;66989;50.426;15.352;2023-03-14T04:01:03;7.13;;;3.45;;
77798;SDS011;66989;50.426;15.352;2023-03-14T04:03:29;12.07;;;7.10;;
77798;SDS011;66989;50.426;15.352;2023-03-14T04:05:58;12.35;;;7.30;;
77798;SDS011;66989;50.426;15.352;2023-03-14T04:08:30;12.57;;;7.35;;
77798;SDS011;66989;50.426;15.352;2023-03-14T04:10:56;10.27;;;6.40;;
77798;SDS011;66989;50.426;15.352;2023-03-14T04:13:23;11.20;;;6.18;;
77798;SDS011;66989;50.426;15.352;2023-03-14T04:15:48;8.40;;;4.78;;
77798;SDS011;66989;50.426;15.352;2023-03-14T04:18:14;9.73;;;4.70;;
77798;SDS011;66989;50.426;15.352;2023-03-14T04:20:39;8.40;;;5.30;;
77798;SDS011;66989;50.426;15.352;2023-03-14T04:23:05;9.17;;;4.53;;
77798;SDS011;66989;50.426;15.352;2023-03-14T04:25:30;7.28;;;4.43;;
77798;SDS011;66989;50.426;15.352;2023-03-14T04:27:55;8.93;;;6.43;;
77798;SDS011;66989;50.426;15.352;2023-03-14T04:30:21;12.10;;;6.57;;
77798;SDS011;66989;50.426;15.352;2023-03-14T04:32:46;12.10;;;5.85;;
77798;SDS011;66989;50.426;15.352;2023-03-14T04:35:12;9.73;;;6.32;;
77798;SDS011;66989;50.426;15.352;2023-03-14T04:37:39;9.32;;;6.07;;
77798;SDS011;66989;50.426;15.352;2023-03-14T04:40:07;10.27;;;5.70;;
77798;SDS011;66989;50.426;15.352;2023-03-14T04:42:33;10.40;;;5.57;;
77798;SDS011;66989;50.426;15.352;2023-03-14T04:44:59;11.27;;;6.15;;
77798;SDS011;66989;50.426;15.352;2023-03-14T04:47:25;11.82;;;7.03;;
77798;SDS011;66989;50.426;15.352;2023-03-14T04:49:50;14.75;;;6.85;;
77798;SDS011;66989;50.426;15.352;2023-03-14T04:52:16;15.03;;;6.63;;
77798;SDS011;66989;50.426;15.352;2023-03-14T04:54:41;12.95;;;7.05;;
77798;SDS011;66989;50.426;15.352;2023-03-14T04:57:06;12.52;;;7.25;;
77798;SDS011;66989;50.426;15.352;2023-03-14T05:01:59;10.43;;;6.17;;
77798;SDS011;66989;50.426;15.352;2023-03-14T05:04:24;12.20;;;6.88;;
77798;SDS011;66989;50.426;15.352;2023-03-14T05:06:50;11.50;;;6.40;;
77798;SDS011;66989;50.426;15.352;2023-03-14T05:09:15;15.03;;;7.77;;
77798;SDS011;66989;50.426;15.352;2023-03-14T05:11:40;16.23;;;7.37;;
77798;SDS011;66989;50.426;15.352;2023-03-14T05:14:06;8.90;;;5.07;;
77798;SDS011;66989;50.426;15.352;2023-03-14T05:16:31;9.05;;;5.22;;
77798;SDS011;66989;50.426;15.352;2023-03-14T05:18:57;11.00;;;6.80;;
77798;SDS011;66989;50.426;15.352;2023-03-14T05:21:22;13.50;;;5.78;;
77798;SDS011;66989;50.426;15.352;2023-03-14T05:23:48;7.20;;;4.85;;
77798;SDS011;66989;50.426;15.352;2023-03-14T05:26:13;9.48;;;5.07;;
77798;SDS011;66989;50.426;15.352;2023-03-14T05:28:38;6.80;;;3.60;;
77798;SDS011;66989;50.426;15.352;2023-03-14T05:31:07;7.97;;;4.43;;
77798;SDS011;66989;50.426;15.352;2023-03-14T05:33:33;11.13;;;4.10;;
77798;SDS011;66989;50.426;15.352;2023-03-14T05:35:58;8.52;;;4.15;;
77798;SDS011;66989;50.426;15.352;2023-03-14T05:38:23;11.43;;;6.57;;
77798;SDS011;66989;50.426;15.352;2023-03-14T05:40:49;8.80;;;5.38;;
77798;SDS011;66989;50.426;15.352;2023-03-14T05:43:15;11.85;;;5.85;;
77798;SDS011;66989;50.426;15.352;2023-03-14T05:45:41;11.18;;;4.32;;
77798;SDS011;66989;50.426;15.352;2023-03-14T05:48:07;10.30;;;6.03;;
77798;SDS011;66989;50.426;15.352;2023-03-14T05:50:33;10.40;;;6.25;;
77798;SDS011;66989;50.426;15.352;2023-03-14T05:52:58;12.02;;;5.88;;
77798;SDS011;66989;50.426;15.352;2023-03-14T05:55:24;9.80;;;5.65;;
77798;SDS011;66989;50.426;15.352;2023-03-14T05:57:50;9.95;;;5.63;;
77798;SDS011;66989;50.426;15.352;2023-03-14T06:00:15;11.35;;;5.50;;
77798;SDS011;66989;50.426;15.352;2023-03-14T06:02:41;13.50;;;5.50;;
77798;SDS011;66989;50.426;15.352;2023-03-14T06:05:07;13.73;;;6.40;;
77798;SDS011;66989;50.426;15.352;2023-03-14T06:07:33;14.10;;;5.75;;
77798;SDS011;66989;50.426;15.352;2023-03-14T06:09:58;10.30;;;5.53;;
77798;SDS011;66989;50.426;15.352;2023-03-14T06:12:24;8.90;;;5.80;;
77798;SDS011;66989;50.426;15.352;2023-03-14T06:14:49;6.93;;;4.40;;
77798;SDS011;66989;50.426;15.352;2023-03-14T06:17:15;11.20;;;5.75;;
77798;SDS011;66989;50.426;15.352;2023-03-14T06:19:42;8.35;;;4.35;;
77798;SDS011;66989;50.426;15.352;2023-03-14T06:22:07;8.15;;;5.38;;
77798;SDS011;66989;50.426;15.352;2023-03-14T06:24:32;8.30;;;4.80;;
77798;SDS011;66989;50.426;15.352;2023-03-14T06:26:58;11.73;;;5.22;;
77798;SDS011;66989;50.426;15.352;2023-03-14T06:29:23;5.85;;;3.97;;
77798;SDS011;66989;50.426;15.352;2023-03-14T06:31:49;7.65;;;3.30;;
77798;SDS011;66989;50.426;15.352;2023-03-14T06:34:15;7.80;;;3.97;;
77798;SDS011;66989;50.426;15.352;2023-03-14T06:36:40;8.55;;;5.07;;
77798;SDS011;66989;50.426;15.352;2023-03-14T06:39:06;13.10;;;5.27;;
77798;SDS011;66989;50.426;15.352;2023-03-14T06:41:31;7.80;;;4.32;;
77798;SDS011;66989;50.426;15.352;2023-03-14T06:43:58;8.52;;;5.45;;
77798;SDS011;66989;50.426;15.352;2023-03-14T06:46:24;6.75;;;4.55;;
77798;SDS011;66989;50.426;15.352;2023-03-14T06:48:50;6.00;;;3.40;;
77798;SDS011;66989;50.426;15.352;2023-03-14T06:51:17;5.45;;;3.47;;
77798;SDS011;66989;50.426;15.352;2023-03-14T06:53:42;17.63;;;11.52;;
77798;SDS011;66989;50.426;15.352;2023-03-14T06:56:07;19.38;;;11.43;;
77798;SDS011;66989;50.426;15.352;2023-03-14T06:58:33;11.00;;;6.82;;
77798;SDS011;66989;50.426;15.352;2023-03-14T07:01:00;14.05;;;6.32;;
77798;SDS011;66989;50.426;15.352;2023-03-14T07:03:25;14.93;;;7.38;;
77798;SDS011;66989;50.426;15.352;2023-03-14T07:05:52;12.63;;;6.43;;
77798;SDS011;66989;50.426;15.352;2023-03-14T07:13:08;15.57;;;7.90;;
77798;SDS011;66989;50.426;15.352;2023-03-14T07:15:37;16.90;;;8.15;;
77798;SDS011;66989;50.426;15.352;2023-03-14T07:18:03;13.25;;;7.35;;
77798;SDS011;66989;50.426;15.352;2023-03-14T07:20:28;10.65;;;5.95;;
77798;SDS011;66989;50.426;15.352;2023-03-14T07:22:57;11.07;;;6.40;;
77798;SDS011;66989;50.426;15.352;2023-03-14T07:25:24;11.52;;;5.30;;
77798;SDS011;66989;50.426;15.352;2023-03-14T07:27:50;8.80;;;5.55;;
77798;SDS011;66989;50.426;15.352;2023-03-14T07:30:16;11.52;;;7.25;;
77798;SDS011;66989;50.426;15.352;2023-03-14T07:32:41;17.90;;;7.65;;
77798;SDS011;66989;50.426;15.352;2023-03-14T07:35:07;26.08;;;15.48;;
77798;SDS011;66989;50.426;15.352;2023-03-14T07:37:34;15.15;;;8.57;;
77798;SDS011;66989;50.426;15.352;2023-03-14T07:39:59;13.95;;;8.52;;
77798;SDS011;66989;50.426;15.352;2023-03-14T07:42:24;13.73;;;7.93;;
77798;SDS011;66989;50.426;15.352;2023-03-14T07:44:50;11.27;;;7.07;;
77798;SDS011;66989;50.426;15.352;2023-03-14T07:47:18;13.45;;;7.88;;
77798;SDS011;66989;50.426;15.352;2023-03-14T07:49:44;14.13;;;8.05;;
77798;SDS011;66989;50.426;15.352;2023-03-14T07:52:10;13.68;;;6.15;;
77798;SDS011;66989;50.426;15.352;2023-03-14T07:54:35;12.18;;;6.70;;
77798;SDS011;66989;50.426;15.352;2023-03-14T07:57:01;13.63;;;7.05;;
77798;SDS011;66989;50.426;15.352;2023-03-14T07:59:27;10.85;;;6.22;;
77798;SDS011;66989;50.426;15.352;2023-03-14T08:01:53;10.45;;;6.35;;
77798;SDS011;66989;50.426;15.352;2023-03-14T08:04:22;13.88;;;7.75;;
77798;SDS011;66989;50.426;15.352;2023-03-14T08:06:47;9.60;;;7.05;;
77798;SDS011;66989;50.426;15.352;2023-03-14T08:09:13;10.75;;;6.22;;
77798;SDS011;66989;50.426;15.352;2023-03-14T08:11:38;9.43;;;5.82;;
77798;SDS011;66989;50.426;15.352;2023-03-14T08:14:04;7.85;;;4.80;;
77798;SDS011;66989;50.426;15.352;2023-03-14T08:16:29;10.13;;;5.73;;
77798;SDS011;66989;50.426;15.352;2023-03-14T08:18:55;9.98;;;7.15;;
77798;SDS011;66989;50.426;15.352;2023-03-14T08:21:22;12.45;;;6.70;;
77798;SDS011;66989;50.426;15.352;2023-03-14T08:26:13;13.90;;;6.73;;
77798;SDS011;66989;50.426;15.352;2023-03-14T08:28:38;12.32;;;7.75;;
77798;SDS011;66989;50.426;15.352;2023-03-14T08:31:04;12.15;;;7.72;;
77798;SDS011;66989;50.426;15.352;2023-03-14T08:33:29;11.63;;;7.28;;
77798;SDS011;66989;50.426;15.352;2023-03-14T08:35:56;13.13;;;7.65;;
77798;SDS011;66989;50.426;15.352;2023-03-14T08:38:23;11.82;;;6.15;;
77798;SDS011;66989;50.426;15.352;2023-03-14T08:40:48;15.57;;;7.45;;
77798;SDS011;66989;50.426;15.352;2023-03-14T08:48:06;10.23;;;6.13;;
77798;SDS011;66989;50.426;15.352;2023-03-14T08:50:32;10.30;;;6.35;;
77798;SDS011;66989;50.426;15.352;2023-03-14T08:52:58;11.23;;;7.32;;
77798;SDS011;66989;50.426;15.352;2023-03-14T08:55:25;13.07;;;6.90;;
77798;SDS011;66989;50.426;15.352;2023-03-14T08:57:52;12.85;;;6.93;;
77798;SDS011;66989;50.426;15.352;2023-03-14T09:00:18;10.50;;;6.25;;
77798;SDS011;66989;50.426;15.352;2023-03-14T09:02:43;11.48;;;6.45;;
77798;SDS011;66989;50.426;15.352;2023-03-14T09:05:10;12.65;;;6.78;;
77798;SDS011;66989;50.426;15.352;2023-03-14T09:07:37;10.60;;;5.50;;
77798;SDS011;66989;50.426;15.352;2023-03-14T09:10:03;8.40;;;5.10;;
77798;SDS011;66989;50.426;15.352;2023-03-14T09:12:28;9.52;;;5.47;;
77798;SDS011;66989;50.426;15.352;2023-03-14T09:14:54;9.75;;;6.13;;
77798;SDS011;66989;50.426;15.352;2023-03-14T09:17:19;21.02;;;7.88;;
77798;SDS011;66989;50.426;15.352;2023-03-14T09:19:45;10.40;;;5.85;;
77798;SDS011;66989;50.426;15.352;2023-03-14T09:22:10;8.65;;;4.95;;
77798;SDS011;66989;50.426;15.352;2023-03-14T09:24:36;9.43;;;5.30;;
77798;SDS011;66989;50.426;15.352;2023-03-14T09:27:01;9.30;;;4.97;;
77798;SDS011;66989;50.426;15.352;2023-03-14T09:29:27;10.27;;;4.95;;
77798;SDS011;66989;50.426;15.352;2023-03-14T09:31:52;9.30;;;4.72;;
77798;SDS011;66989;50.426;15.352;2023-03-14T09:34:17;9.95;;;4.57;;
77798;SDS011;66989;50.426;15.352;2023-03-14T09:36:43;9.15;;;4.38;;
77798;SDS011;66989;50.426;15.352;2023-03-14T09:39:11;6.05;;;3.92;;
77798;SDS011;66989;50.426;15.352;2023-03-14T09:41:37;7.07;;;4.25;;
77798;SDS011;66989;50.426;15.352;2023-03-14T09:44:25;7.00;;;4.13;;
77798;SDS011;66989;50.426;15.352;2023-03-14T09:46:54;7.72;;;3.20;;
77798;SDS011;66989;50.426;15.352;2023-03-14T09:49:27;7.82;;;3.88;;
77798;SDS011;66989;50.426;15.352;2023-03-14T09:51:56;9.23;;;3.83;;
77798;SDS011;66989;50.426;15.352;2023-03-14T09:54:28;7.57;;;3.22;;
77798;SDS011;66989;50.426;15.352;2023-03-14T09:57:02;5.60;;;3.33;;
77798;SDS011;66989;50.426;15.352;2023-03-14T09:59:29;8.02;;;4.13;;
77798;SDS011;66989;50.426;15.352;2023-03-14T10:04:25;4.20;;;2.58;;
77798;SDS011;66989;50.426;15.352;2023-03-14T10:06:50;5.75;;;3.08;;
77798;SDS011;66989;50.426;15.352;2023-03-14T10:09:21;8.57;;;4.47;;
77798;SDS011;66989;50.426;15.352;2023-03-14T10:14:16;11.85;;;5.82;;
77798;SDS011;66989;50.426;15.352;2023-03-14T10:17:12;10.48;;;3.78;;
77798;SDS011;66989;50.426;15.352;2023-03-14T10:19:57;14.68;;;4.80;;
77798;SDS011;66989;50.426;15.352;2023-03-14T10:22:26;7.72;;;3.25;;
77798;SDS011;66989;50.426;15.352;2023-03-14T10:24:56;8.95;;;2.72;;
77798;SDS011;66989;50.426;15.352;2023-03-14T10:27:30;8.90;;;2.95;;
77798;SDS011;66989;50.426;15.352;2023-03-14T10:29:59;5.28;;;2.00;;
77798;SDS011;66989;50.426;15.352;2023-03-14T10:32:33;5.90;;;3.20;;
77798;SDS011;66989;50.426;15.352;2023-03-14T10:37:57;1.90;;;0.65;;
77798;SDS011;66989;50.426;15.352;2023-03-14T10:40:36;1.33;;;0.75;;
77798;SDS011;66989;50.426;15.352;2023-03-14T10:43:04;0.88;;;0.22;;
77798;SDS011;66989;50.426;15.352;2023-03-14T10:45:39;1.63;;;0.38;;
77798;SDS011;66989;50.426;15.352;2023-03-14T10:50:47;5.63;;;1.52;;
77798;SDS011;66989;50.426;15.352;2023-03-14T10:53:16;6.80;;;1.67;;
77798;SDS011;66989;50.426;15.352;2023-03-14T10:55:44;8.40;;;2.85;;
77798;SDS011;66989;50.426;15.352;2023-03-14T10:58:26;11.13;;;3.55;;
77798;SDS011;66989;50.426;15.352;2023-03-14T11:03:31;11.23;;;3.35;;
77798;SDS011;66989;50.426;15.352;2023-03-14T11:06:14;6.68;;;3.33;;
77798;SDS011;66989;50.426;15.352;2023-03-14T11:09:02;5.15;;;1.67;;
77798;SDS011;66989;50.426;15.352;2023-03-14T11:11:35;3.90;;;1.17;;
77798;SDS011;66989;50.426;15.352;2023-03-14T11:22:21;1.20;;;0.30;;
77798;SDS011;66989;50.426;15.352;2023-03-14T11:27:41;2.95;;;0.32;;
77798;SDS011;66989;50.426;15.352;2023-03-14T11:30:26;1.00;;;0.43;;
77798;SDS011;66989;50.426;15.352;2023-03-14T11:38:30;3.70;;;0.45;;
77798;SDS011;66989;50.426;15.352;2023-03-14T11:41:02;2.63;;;0.20;;
77798;SDS011;66989;50.426;15.352;2023-03-14T11:46:03;2.17;;;0.10;;
77798;SDS011;66989;50.426;15.352;2023-03-14T11:51:44;1.55;;;0.22;;
77798;SDS011;66989;50.426;15.352;2023-03-14T11:54:18;1.73;;;0.20;;
77798;SDS011;66989;50.426;15.352;2023-03-14T11:56:58;1.02;;;0.40;;
77798;SDS011;66989;50.426;15.352;2023-03-14T11:59:45;0.70;;;0.20;;
77798;SDS011;66989;50.426;15.352;2023-03-14T12:05:22;6.95;;;0.50;;
77798;SDS011;66989;50.426;15.352;2023-03-14T12:10:36;0.85;;;0.10;;
77798;SDS011;66989;50.426;15.352;2023-03-14T12:13:06;2.47;;;0.40;;
77798;SDS011;66989;50.426;15.352;2023-03-14T12:15:36;1.90;;;0.70;;
77798;SDS011;66989;50.426;15.352;2023-03-14T12:20:58;3.10;;;0.43;;
77798;SDS011;66989;50.426;15.352;2023-03-14T12:23:26;2.55;;;0.40;;
77798;SDS011;66989;50.426;15.352;2023-03-14T12:28:37;3.65;;;1.85;;
77798;SDS011;66989;50.426;15.352;2023-03-14T12:42:20;12.25;;;7.25;;
77798;SDS011;66989;50.426;15.352;2023-03-14T12:45:14;18.58;;;9.55;;
77798;SDS011;66989;50.426;15.352;2023-03-14T12:56:27;4.30;;;1.92;;
77798;SDS011;66989;50.426;15.352;2023-03-14T13:05:04;1.55;;;0.80;;
77798;SDS011;66989;50.426;15.352;2023-03-14T13:10:26;1.15;;;0.43;;
77798;SDS011;66989;50.426;15.352;2023-03-14T13:13:14;1.65;;;0.90;;
77798;SDS011;66989;50.426;15.352;2023-03-14T13:15:46;1.42;;;0.30;;
77798;SDS011;66989;50.426;15.352;2023-03-14T13:18:16;0.98;;;0.47;;
77798;SDS011;66989;50.426;15.352;2023-03-14T13:21:02;0.95;;;0.30;;
77798;SDS011;66989;50.426;15.352;2023-03-14T13:24:05;2.60;;;0.57;;
77798;SDS011;66989;50.426;15.352;2023-03-14T13:26:35;1.00;;;0.20;;
77798;SDS011;66989;50.426;15.352;2023-03-14T13:34:51;1.70;;;0.10;;
77798;SDS011;66989;50.426;15.352;2023-03-14T13:37:18;0.90;;;0.03;;
77798;SDS011;66989;50.426;15.352;2023-03-14T13:39:50;2.65;;;0.20;;
77798;SDS011;66989;50.426;15.352;2023-03-14T13:42:24;1.10;;;0.20;;
77798;SDS011;66989;50.426;15.352;2023-03-14T13:44:54;2.45;;;0.30;;
77798;SDS011;66989;50.426;15.352;2023-03-14T13:47:22;2.00;;;0.20;;
77798;SDS011;66989;50.426;15.352;2023-03-14T13:49:49;1.08;;;0.40;;
77798;SDS011;66989;50.426;15.352;2023-03-14T13:55:17;0.70;;;0.10;;
77798;SDS011;66989;50.426;15.352;2023-03-14T14:00:22;1.00;;;0.10;;
77798;SDS011;66989;50.426;15.352;2023-03-14T14:02:52;1.13;;;0.30;;
77798;SDS011;66989;50.426;15.352;2023-03-14T14:05:23;0.65;;;0.10;;
77798;SDS011;66989;50.426;15.352;2023-03-14T14:07:52;0.95;;;0.45;;
77798;SDS011;66989;50.426;15.352;2023-03-14T14:10:17;3.78;;;0.40;;
77798;SDS011;66989;50.426;15.352;2023-03-14T14:15:17;1.65;;;1.00;;
77798;SDS011;66989;50.426;15.352;2023-03-14T14:20:22;1.27;;;0.45;;
77798;SDS011;66989;50.426;15.352;2023-03-14T14:22:56;2.22;;;0.60;;
77798;SDS011;66989;50.426;15.352;2023-03-14T14:25:24;1.80;;;1.00;;
77798;SDS011;66989;50.426;15.352;2023-03-14T14:27:51;3.95;;;1.08;;
77798;SDS011;66989;50.426;15.352;2023-03-14T14:32:42;2.05;;;1.20;;
77798;SDS011;66989;50.426;15.352;2023-03-14T14:37:46;1.02;;;0.47;;
77798;SDS011;66989;50.426;15.352;2023-03-14T14:40:16;1.50;;;0.20;;
77798;SDS011;66989;50.426;15.352;2023-03-14T14:42:45;2.20;;;0.77;;
77798;SDS011;66989;50.426;15.352;2023-03-14T14:45:21;1.98;;;0.35;;
77798;SDS011;66989;50.426;15.352;2023-03-14T14:47:53;2.00;;;0.85;;
77798;SDS011;66989;50.426;15.352;2023-03-14T14:50:29;3.08;;;1.02;;
77798;SDS011;66989;50.426;15.352;2023-03-14T14:52:57;3.33;;;0.90;;
77798;SDS011;66989;50.426;15.352;2023-03-14T14:55:28;4.13;;;1.05;;
77798;SDS011;66989;50.426;15.352;2023-03-14T14:57:58;4.30;;;1.65;;
77798;SDS011;66989;50.426;15.352;2023-03-14T15:00:55;4.00;;;1.00;;
77798;SDS011;66989;50.426;15.352;2023-03-14T15:03:25;3.50;;;1.10;;
77798;SDS011;66989;50.426;15.352;2023-03-14T15:05:53;2.70;;;0.63;;
77798;SDS011;66989;50.426;15.352;2023-03-14T15:10:46;1.83;;;0.40;;
77798;SDS011;66989;50.426;15.352;2023-03-14T15:13:11;2.47;;;0.77;;
77798;SDS011;66989;50.426;15.352;2023-03-14T15:15:36;2.25;;;0.32;;
77798;SDS011;66989;50.426;15.352;2023-03-14T15:18:04;2.17;;;0.47;;
77798;SDS011;66989;50.426;15.352;2023-03-14T15:20:38;2.22;;;0.70;;
77798;SDS011;66989;50.426;15.352;2023-03-14T15:23:07;2.90;;;0.50;;
77798;SDS011;66989;50.426;15.352;2023-03-14T15:25:35;2.20;;;0.75;;
77798;SDS011;66989;50.426;15.352;2023-03-14T15:28:01;5.25;;;0.98;;
77798;SDS011;66989;50.426;15.352;2023-03-14T15:30:27;2.33;;;0.30;;
77798;SDS011;66989;50.426;15.352;2023-03-14T15:32:52;0.85;;;0.10;;
77798;SDS011;66989;50.426;15.352;2023-03-14T15:35:19;5.38;;;0.63;;
77798;SDS011;66989;50.426;15.352;2023-03-14T15:37:44;1.67;;;0.50;;
77798;SDS011;66989;50.426;15.352;2023-03-14T15:40:11;11.73;;;5.00;;
77798;SDS011;66989;50.426;15.352;2023-03-14T15:42:39;2.17;;;0.52;;
77798;SDS011;66989;50.426;15.352;2023-03-14T15:45:05;3.20;;;0.98;;
77798;SDS011;66989;50.426;15.352;2023-03-14T15:47:31;3.53;;;1.15;;
77798;SDS011;66989;50.426;15.352;2023-03-14T15:49:57;3.53;;;0.90;;
77798;SDS011;66989;50.426;15.352;2023-03-14T15:52:22;4.40;;;1.50;;
77798;SDS011;66989;50.426;15.352;2023-03-14T15:54:49;3.05;;;1.70;;
77798;SDS011;66989;50.426;15.352;2023-03-14T15:57:14;3.83;;;2.03;;
77798;SDS011;66989;50.426;15.352;2023-03-14T15:59:40;5.17;;;1.43;;
77798;SDS011;66989;50.426;15.352;2023-03-14T16:02:05;2.25;;;0.75;;
77798;SDS011;66989;50.426;15.352;2023-03-14T16:04:36;2.70;;;0.87;;
77798;SDS011;66989;50.426;15.352;2023-03-14T16:07:02;6.78;;;3.10;;
77798;SDS011;66989;50.426;15.352;2023-03-14T16:09:28;9.63;;;3.08;;
77798;SDS011;66989;50.426;15.352;2023-03-14T16:11:53;2.53;;;1.38;;
77798;SDS011;66989;50.426;15.352;2023-03-14T16:14:19;3.38;;;0.93;;
77798;SDS011;66989;50.426;15.352;2023-03-14T16:16:44;3.13;;;0.80;;
77798;SDS011;66989;50.426;15.352;2023-03-14T16:19:10;2.42;;;0.43;;
77798;SDS011;66989;50.426;15.352;2023-03-14T16:21:35;2.22;;;0.93;;
77798;SDS011;66989;50.426;15.352;2023-03-14T16:24:04;1.70;;;0.25;;
77798;SDS011;66989;50.426;15.352;2023-03-14T16:26:31;2.42;;;1.00;;
77798;SDS011;66989;50.426;15.352;2023-03-14T16:28:59;2.20;;;0.70;;
77798;SDS011;66989;50.426;15.352;2023-03-14T16:31:26;3.17;;;1.15;;
77798;SDS011;66989;50.426;15.352;2023-03-14T16:36:16;3.22;;;1.42;;
77798;SDS011;66989;50.426;15.352;2023-03-14T16:38:42;2.42;;;0.80;;
77798;SDS011;66989;50.426;15.352;2023-03-14T16:41:13;2.20;;;0.57;;
77798;SDS011;66989;50.426;15.352;2023-03-14T16:43:43;2.15;;;0.60;;
77798;SDS011;66989;50.426;15.352;2023-03-14T16:46:13;2.53;;;1.00;;